sensor_id;sensor_type;location;lat;lon;timestamp;pressure;altitude;pressure_sealevel;temperature;humidity
6565;BME280;3316;44.118;27.258;2022-11-12T00:02:09;102725.34;;;10.81;100.00
6565;BME280;3316;44.118;27.258;2022-11-12T00:04:34;102728.06;;;10.84;100.00
6565;BME280;3316;44.118;27.258;2022-11-12T00:07:00;102718.19;;;10.75;100.00
6565;BME280;3316;44.118;27.258;2022-11-12T00:09:25;102729.78;;;10.84;100.00
6565;BME280;3316;44.118;27.258;2022-11-12T00:11:50;102727.19;;;10.85;100.00
6565;BME280;3316;44.118;27.258;2022-11-12T00:14:16;102724.59;;;10.87;100.00
6565;BME280;3316;44.118;27.258;2022-11-12T00:16:41;102726.34;;;10.86;100.00
6565;BME280;3316;44.118;27.258;2022-11-12T00:19:07;102698.94;;;10.78;100.00
6565;BME280;3316;44.118;27.258;2022-11-12T00:21:32;102712.25;;;10.84;100.00
6565;BME280;3316;44.118;27.258;2022-11-12T00:23:57;102723.75;;;10.89;100.00
6565;BME280;3316;44.118;27.258;2022-11-12T00:26:23;102727.19;;;10.85;100.00
6565;BME280;3316;44.118;27.258;2022-11-12T00:28:48;102718.34;;;10.82;100.00
6565;BME280;3316;44.118;27.258;2022-11-12T00:31:14;102727.28;;;10.90;100.00
6565;BME280;3316;44.118;27.258;2022-11-12T00:33:41;102727.31;;;10.91;100.00
6565;BME280;3316;44.118;27.258;2022-11-12T00:36:07;102722.78;;;10.84;100.00
6565;BME280;3316;44.118;27.258;2022-11-12T00:38:33;102664.03;;;10.48;100.00
6565;BME280;3316;44.118;27.258;2022-11-12T00:40:59;102728.97;;;10.86;100.00
6565;BME280;3316;44.118;27.258;2022-11-12T00:43:24;102734.28;;;10.88;100.00
6565;BME280;3316;44.118;27.258;2022-11-12T00:45:50;102730.03;;;10.94;100.00
6565;BME280;3316;44.118;27.258;2022-11-12T00:48:15;102716.75;;;10.90;100.00
6565;BME280;3316;44.118;27.258;2022-11-12T00:50:41;102724.66;;;10.90;100.00
6565;BME280;3316;44.118;27.258;2022-11-12T00:53:06;102722.81;;;10.86;100.00
6565;BME280;3316;44.118;27.258;2022-11-12T00:55:32;102728.78;;;10.78;100.00
6565;BME280;3316;44.118;27.258;2022-11-12T00:57:57;102715.22;;;10.60;100.00
6565;BME280;3316;44.118;27.258;2022-11-12T01:00:23;102726.06;;;10.74;100.00
6565;BME280;3316;44.118;27.258;2022-11-12T01:02:49;102713.56;;;10.64;100.00
6565;BME280;3316;44.118;27.258;2022-11-12T01:05:15;102722.50;;;10.72;100.00
6565;BME280;3316;44.118;27.258;2022-11-12T01:07:41;102724.97;;;10.64;100.00
6565;BME280;3316;44.118;27.258;2022-11-12T01:10:08;102708.03;;;10.53;100.00
6565;BME280;3316;44.118;27.258;2022-11-12T01:12:34;102707.19;;;10.54;100.00
6565;BME280;3316;44.118;27.258;2022-11-12T01:15:00;102716.81;;;10.52;100.00
6565;BME280;3316;44.118;27.258;2022-11-12T01:17:26;102704.16;;;10.38;100.00
6565;BME280;3316;44.118;27.258;2022-11-12T01:19:52;102712.97;;;10.40;100.00
6565;BME280;3316;44.118;27.258;2022-11-12T01:22:17;102723.66;;;10.46;100.00
6565;BME280;3316;44.118;27.258;2022-11-12T01:24:43;102706.59;;;10.29;100.00
6565;BME280;3316;44.118;27.258;2022-11-12T01:27:08;102704.75;;;10.26;100.00
6565;BME280;3316;44.118;27.258;2022-11-12T01:29:34;102718.19;;;10.37;100.00
6565;BME280;3316;44.118;27.258;2022-11-12T01:31:59;102718.03;;;10.31;100.00
6565;BME280;3316;44.118;27.258;2022-11-12T01:34:25;102719.56;;;10.21;100.00
6565;BME280;3316;44.118;27.258;2022-11-12T01:36:50;102698.16;;;10.08;100.00
6565;BME280;3316;44.118;27.258;2022-11-12T01:39:16;102724.47;;;10.08;100.00
6565;BME280;3316;44.118;27.258;2022-11-12T01:41:42;102732.38;;;10.09;100.00
6565;BME280;3316;44.118;27.258;2022-11-12T01:44:19;102718.50;;;10.15;100.00
6565;BME280;3316;44.118;27.258;2022-11-12T01:49:20;102721.72;;;10.05;100.00
6565;BME280;3316;44.118;27.258;2022-11-12T01:51:48;102715.53;;;10.03;100.00
6565;BME280;3316;44.118;27.258;2022-11-12T01:54:17;102728.78;;;10.06;100.00
6565;BME280;3316;44.118;27.258;2022-11-12T01:56:44;102717.59;;;10.13;100.00
6565;BME280;3316;44.118;27.258;2022-11-12T01:59:15;102725.50;;;10.14;100.00
6565;BME280;3316;44.118;27.258;2022-11-12T02:01:42;102712.09;;;10.05;100.00
6565;BME280;3316;44.118;27.258;2022-11-12T02:04:07;102724.34;;;10.05;100.00
6565;BME280;3316;44.118;27.258;2022-11-12T02:06:33;102715.44;;;9.98;100.00
6565;BME280;3316;44.118;27.258;2022-11-12T02:08:59;102729.91;;;10.14;100.00
6565;BME280;3316;44.118;27.258;2022-11-12T02:11:25;102729.19;;;10.21;100.00
6565;BME280;3316;44.118;27.258;2022-11-12T02:13:51;102728.28;;;10.20;100.00
6565;BME280;3316;44.118;27.258;2022-11-12T02:16:37;102716.00;;;10.19;100.00
6565;BME280;3316;44.118;27.258;2022-11-12T02:19:08;102705.00;;;10.01;100.00
6565;BME280;3316;44.118;27.258;2022-11-12T02:21:34;102731.38;;;10.04;100.00
6565;BME280;3316;44.118;27.258;2022-11-12T02:26:32;102719.03;;;10.02;100.00
6565;BME280;3316;44.118;27.258;2022-11-12T02:28:58;102708.38;;;9.97;100.00
6565;BME280;3316;44.118;27.258;2022-11-12T02:31:24;102689.72;;;9.86;100.00
6565;BME280;3316;44.118;27.258;2022-11-12T02:33:50;102731.47;;;10.09;100.00
6565;BME280;3316;44.118;27.258;2022-11-12T02:36:15;102721.69;;;10.03;100.00
6565;BME280;3316;44.118;27.258;2022-11-12T02:38:41;102730.75;;;10.13;100.00
6565;BME280;3316;44.118;27.258;2022-11-12T02:41:07;102711.28;;;10.06;100.00
6565;BME280;3316;44.118;27.258;2022-11-12T02:43:32;102730.53;;;10.05;100.00
6565;BME280;3316;44.118;27.258;2022-11-12T02:45:57;102738.66;;;10.14;100.00
6565;BME280;3316;44.118;27.258;2022-11-12T02:48:23;102741.44;;;10.20;100.00
6565;BME280;3316;44.118;27.258;2022-11-12T02:50:48;102722.03;;;10.15;100.00
6565;BME280;3316;44.118;27.258;2022-11-12T02:53:14;102746.97;;;10.31;100.00
6565;BME280;3316;44.118;27.258;2022-11-12T02:55:39;102733.69;;;10.26;100.00
6565;BME280;3316;44.118;27.258;2022-11-12T02:58:06;102741.72;;;10.31;100.00
6565;BME280;3316;44.118;27.258;2022-11-12T03:00:31;102728.50;;;10.28;100.00
6565;BME280;3316;44.118;27.258;2022-11-12T03:02:57;102725.91;;;10.29;100.00
6565;BME280;3316;44.118;27.258;2022-11-12T03:05:30;102725.22;;;10.38;100.00
6565;BME280;3316;44.118;27.258;2022-11-12T03:07:57;102724.38;;;10.39;100.00
6565;BME280;3316;44.118;27.258;2022-11-12T03:10:26;102718.19;;;10.37;100.00
6565;BME280;3316;44.118;27.258;2022-11-12T03:12:54;102718.97;;;10.33;100.00
6565;BME280;3316;44.118;27.258;2022-11-12T03:15:20;102722.59;;;10.38;100.00
6565;BME280;3316;44.118;27.258;2022-11-12T03:17:45;102725.91;;;10.29;100.00
6565;BME280;3316;44.118;27.258;2022-11-12T03:20:11;102727.56;;;10.26;100.00
6565;BME280;3316;44.118;27.258;2022-11-12T03:22:38;102676.78;;;9.94;100.00
6565;BME280;3316;44.118;27.258;2022-11-12T03:25:05;102722.97;;;10.17;100.00
6565;BME280;3316;44.118;27.258;2022-11-12T03:27:30;102723.16;;;10.25;100.00
6565;BME280;3316;44.118;27.258;2022-11-12T03:29:56;102717.00;;;10.24;100.00
6565;BME280;3316;44.118;27.258;2022-11-12T03:32:22;102729.47;;;10.31;100.00
6565;BME280;3316;44.118;27.258;2022-11-12T03:34:47;102729.53;;;10.34;100.00
6565;BME280;3316;44.118;27.258;2022-11-12T03:37:13;102723.44;;;10.37;100.00
6565;BME280;3316;44.118;27.258;2022-11-12T03:39:38;102726.00;;;10.34;100.00
6565;BME280;3316;44.118;27.258;2022-11-12T03:42:04;102721.63;;;10.34;100.00
6565;BME280;3316;44.118;27.258;2022-11-12T03:44:30;102739.38;;;10.43;100.00
6565;BME280;3316;44.118;27.258;2022-11-12T03:46:55;102711.91;;;10.32;100.00
6565;BME280;3316;44.118;27.258;2022-11-12T03:49:21;102737.84;;;10.51;100.00
6565;BME280;3316;44.118;27.258;2022-11-12T03:51:46;102737.84;;;10.51;100.00
6565;BME280;3316;44.118;27.258;2022-11-12T03:54:12;102732.81;;;10.63;100.00
6565;BME280;3316;44.118;27.258;2022-11-12T03:56:37;102736.34;;;10.63;100.00
6565;BME280;3316;44.118;27.258;2022-11-12T03:59:03;102732.66;;;10.55;100.00
6565;BME280;3316;44.118;27.258;2022-11-12T04:01:29;102739.75;;;10.58;100.00
6565;BME280;3316;44.118;27.258;2022-11-12T04:03:55;102745.81;;;10.55;100.00
6565;BME280;3316;44.118;27.258;2022-11-12T04:06:20;102744.16;;;10.59;100.00
6565;BME280;3316;44.118;27.258;2022-11-12T04:09:05;102753.78;;;10.57;100.00
6565;BME280;3316;44.118;27.258;2022-11-12T04:11:30;102757.25;;;10.56;100.00
6565;BME280;3316;44.118;27.258;2022-11-12T04:13:55;102752.91;;;10.58;100.00
6565;BME280;3316;44.118;27.258;2022-11-12T04:16:22;102757.25;;;10.56;100.00
6565;BME280;3316;44.118;27.258;2022-11-12T04:19:09;102756.31;;;10.54;100.00
6565;BME280;3316;44.118;27.258;2022-11-12T04:21:59;102742.97;;;10.46;100.00
6565;BME280;3316;44.118;27.258;2022-11-12T04:24:26;102764.31;;;10.57;100.00
6565;BME280;3316;44.118;27.258;2022-11-12T04:29:52;102754.69;;;10.59;100.00
6565;BME280;3316;44.118;27.258;2022-11-12T04:32:53;102745.19;;;10.67;100.00
6565;BME280;3316;44.118;27.258;2022-11-12T04:35:20;102644.66;;;10.07;100.00
6565;BME280;3316;44.118;27.258;2022-11-12T04:37:46;102742.50;;;10.62;100.00
6565;BME280;3316;44.118;27.258;2022-11-12T04:40:13;102699.75;;;10.35;100.00
6565;BME280;3316;44.118;27.258;2022-11-12T04:42:58;102740.84;;;10.67;100.00
6565;BME280;3316;44.118;27.258;2022-11-12T04:45:43;102742.38;;;10.58;100.00
6565;BME280;3316;44.118;27.258;2022-11-12T04:48:09;102744.03;;;10.54;100.00
6565;BME280;3316;44.118;27.258;2022-11-12T04:50:35;102747.59;;;10.56;100.00
6565;BME280;3316;44.118;27.258;2022-11-12T04:53:01;102740.53;;;10.55;100.00
6565;BME280;3316;44.118;27.258;2022-11-12T04:55:26;102737.84;;;10.51;100.00
6565;BME280;3316;44.118;27.258;2022-11-12T04:57:52;102741.38;;;10.53;100.00
6565;BME280;3316;44.118;27.258;2022-11-12T05:00:17;102742.22;;;10.52;100.00
6565;BME280;3316;44.118;27.258;2022-11-12T05:02:43;102749.28;;;10.53;100.00
6565;BME280;3316;44.118;27.258;2022-11-12T05:05:08;102736.84;;;10.47;100.00
6565;BME280;3316;44.118;27.258;2022-11-12T05:07:34;102751.13;;;10.57;100.00
6565;BME280;3316;44.118;27.258;2022-11-12T05:09:59;102763.53;;;10.61;100.00
6565;BME280;3316;44.118;27.258;2022-11-12T05:12:24;102750.16;;;10.53;100.00
6565;BME280;3316;44.118;27.258;2022-11-12T05:14:50;102752.75;;;10.52;100.00
6565;BME280;3316;44.118;27.258;2022-11-12T05:17:15;102770.22;;;10.48;100.00
6565;BME280;3316;44.118;27.258;2022-11-12T05:19:41;102749.13;;;10.47;100.00
6565;BME280;3316;44.118;27.258;2022-11-12T05:22:09;102749.44;;;10.59;100.00
6565;BME280;3316;44.118;27.258;2022-11-12T05:24:35;102768.19;;;10.74;100.00
6565;BME280;3316;44.118;27.258;2022-11-12T05:27:03;102765.88;;;10.88;100.00
6565;BME280;3316;44.118;27.258;2022-11-12T05:29:29;102749.16;;;10.86;100.00
6565;BME280;3316;44.118;27.258;2022-11-12T05:31:54;102760.75;;;10.94;100.00
6565;BME280;3316;44.118;27.258;2022-11-12T05:34:20;102768.78;;;11.00;100.00
6565;BME280;3316;44.118;27.258;2022-11-12T05:36:45;102731.41;;;10.77;100.00
6565;BME280;3316;44.118;27.258;2022-11-12T05:39:11;102763.34;;;10.92;100.00
6565;BME280;3316;44.118;27.258;2022-11-12T05:41:36;102771.25;;;10.92;100.00
6565;BME280;3316;44.118;27.258;2022-11-12T05:44:02;102773.66;;;10.83;100.00
6565;BME280;3316;44.118;27.258;2022-11-12T05:46:27;102774.25;;;10.70;100.00
6565;BME280;3316;44.118;27.258;2022-11-12T05:48:52;102779.53;;;10.70;100.00
6565;BME280;3316;44.118;27.258;2022-11-12T05:51:18;102789.31;;;10.77;100.00
6565;BME280;3316;44.118;27.258;2022-11-12T05:53:43;102792.09;;;10.83;100.00
6565;BME280;3316;44.118;27.258;2022-11-12T05:56:10;102760.00;;;10.62;100.00
6565;BME280;3316;44.118;27.258;2022-11-12T05:58:36;102798.31;;;10.87;100.00
6565;BME280;3316;44.118;27.258;2022-11-12T06:01:02;102811.69;;;10.94;100.00
6565;BME280;3316;44.118;27.258;2022-11-12T06:03:28;102808.97;;;10.91;100.00
6565;BME280;3316;44.118;27.258;2022-11-12T06:05:53;102799.53;;;11.01;100.00
6565;BME280;3316;44.118;27.258;2022-11-12T06:08:19;102808.31;;;11.00;100.00
6565;BME280;3316;44.118;27.258;2022-11-12T06:10:48;102815.44;;;11.05;100.00
6565;BME280;3316;44.118;27.258;2022-11-12T06:13:14;102819.09;;;11.12;100.00
6565;BME280;3316;44.118;27.258;2022-11-12T06:15:40;102823.41;;;11.08;100.00
6565;BME280;3316;44.118;27.258;2022-11-12T06:18:06;102815.63;;;11.13;100.00
6565;BME280;3316;44.118;27.258;2022-11-12T06:20:32;102819.19;;;11.16;100.00
6565;BME280;3316;44.118;27.258;2022-11-12T06:22:58;102830.91;;;11.29;100.00
6565;BME280;3316;44.118;27.258;2022-11-12T06:25:24;102837.28;;;11.38;100.00
6565;BME280;3316;44.118;27.258;2022-11-12T06:27:49;102824.09;;;11.38;100.00
6565;BME280;3316;44.118;27.258;2022-11-12T06:30:15;102829.28;;;11.35;100.00
6565;BME280;3316;44.118;27.258;2022-11-12T06:32:40;102850.63;;;11.47;100.00
6565;BME280;3316;44.118;27.258;2022-11-12T06:35:06;102824.13;;;11.41;100.00
6565;BME280;3316;44.118;27.258;2022-11-12T06:37:31;102844.81;;;11.62;100.00
6565;BME280;3316;44.118;27.258;2022-11-12T06:39:57;102846.53;;;11.61;100.00
6565;BME280;3316;44.118;27.258;2022-11-12T06:42:22;102841.47;;;11.69;100.00
6565;BME280;3316;44.118;27.258;2022-11-12T06:44:48;102832.78;;;11.76;100.00
6565;BME280;3316;44.118;27.258;2022-11-12T06:47:13;102832.16;;;11.88;100.00
6565;BME280;3316;44.118;27.258;2022-11-12T06:49:39;102798.19;;;11.62;100.00
6565;BME280;3316;44.118;27.258;2022-11-12T06:52:04;102835.63;;;11.84;100.00
6565;BME280;3316;44.118;27.258;2022-11-12T06:54:29;102842.47;;;11.76;100.00
6565;BME280;3316;44.118;27.258;2022-11-12T06:56:55;102840.81;;;11.81;100.00
6565;BME280;3316;44.118;27.258;2022-11-12T06:59:20;102840.72;;;11.76;100.00
6565;BME280;3316;44.118;27.258;2022-11-12T07:01:46;102838.91;;;11.74;100.00
6565;BME280;3316;44.118;27.258;2022-11-12T07:04:11;102806.38;;;11.73;100.00
6565;BME280;3316;44.118;27.258;2022-11-12T07:06:37;102848.03;;;11.91;100.00
6565;BME280;3316;44.118;27.258;2022-11-12T07:09:04;102835.53;;;11.81;100.00
6565;BME280;3316;44.118;27.258;2022-11-12T07:11:29;102835.41;;;11.75;100.00
6565;BME280;3316;44.118;27.258;2022-11-12T07:13:55;102846.84;;;11.74;100.00
6565;BME280;3316;44.118;27.258;2022-11-12T07:16:20;102857.69;;;11.90;100.00
6565;BME280;3316;44.118;27.258;2022-11-12T07:18:47;102855.31;;;12.02;100.00
6565;BME280;3316;44.118;27.258;2022-11-12T07:21:15;102833.22;;;11.97;100.00
6565;BME280;3316;44.118;27.258;2022-11-12T07:23:41;102831.19;;;11.84;100.00
6565;BME280;3316;44.118;27.258;2022-11-12T07:26:11;102848.16;;;11.97;100.00
6565;BME280;3316;44.118;27.258;2022-11-12T07:28:37;102848.19;;;11.98;100.00
6565;BME280;3316;44.118;27.258;2022-11-12T07:31:04;102864.00;;;11.97;100.00
6565;BME280;3316;44.118;27.258;2022-11-12T07:33:30;102860.28;;;11.86;100.00
6565;BME280;3316;44.118;27.258;2022-11-12T07:36:01;102840.09;;;11.88;100.00
6565;BME280;3316;44.118;27.258;2022-11-12T07:38:28;102842.94;;;12.00;100.00
6565;BME280;3316;44.118;27.258;2022-11-12T07:41:01;102814.50;;;11.84;100.00
6565;BME280;3316;44.118;27.258;2022-11-12T07:43:31;102848.31;;;12.06;100.00
6565;BME280;3316;44.118;27.258;2022-11-12T07:46:01;102812.88;;;11.92;100.00
6565;BME280;3316;44.118;27.258;2022-11-12T07:48:30;102853.06;;;12.25;100.00
6565;BME280;3316;44.118;27.258;2022-11-12T07:51:08;102848.78;;;12.30;100.00
6565;BME280;3316;44.118;27.258;2022-11-12T07:53:35;102831.34;;;12.38;100.00
6565;BME280;3316;44.118;27.258;2022-11-12T07:56:01;102821.63;;;12.37;100.00
6565;BME280;3316;44.118;27.258;2022-11-12T07:58:30;102860.22;;;12.81;100.00
6565;BME280;3316;44.118;27.258;2022-11-12T08:00:55;102804.53;;;12.68;100.00
6565;BME280;3316;44.118;27.258;2022-11-12T08:03:21;102857.19;;;13.11;100.00
6565;BME280;3316;44.118;27.258;2022-11-12T08:05:47;102850.44;;;13.32;100.00
6565;BME280;3316;44.118;27.258;2022-11-12T08:08:12;102848.31;;;13.72;100.00
6565;BME280;3316;44.118;27.258;2022-11-12T08:10:38;102850.56;;;14.18;100.00
6565;BME280;3316;44.118;27.258;2022-11-12T08:13:03;102743.81;;;14.19;100.00
6565;BME280;3316;44.118;27.258;2022-11-12T08:15:30;102849.28;;;16.80;100.00
6565;BME280;3316;44.118;27.258;2022-11-12T08:17:55;102853.34;;;20.48;100.00
6565;BME280;3316;44.118;27.258;2022-11-12T08:20:20;102843.94;;;22.49;78.70
6565;BME280;3316;44.118;27.258;2022-11-12T08:22:46;102855.00;;;23.68;63.94
6565;BME280;3316;44.118;27.258;2022-11-12T08:25:12;102855.50;;;24.12;58.94
6565;BME280;3316;44.118;27.258;2022-11-12T08:27:37;102873.78;;;23.39;60.94
6565;BME280;3316;44.118;27.258;2022-11-12T08:30:03;102884.47;;;24.59;57.03
6565;BME280;3316;44.118;27.258;2022-11-12T08:32:29;102880.28;;;25.03;51.47
6565;BME280;3316;44.118;27.258;2022-11-12T08:34:55;102873.34;;;23.83;53.99
6565;BME280;3316;44.118;27.258;2022-11-12T08:37:20;102871.19;;;21.48;65.18
6565;BME280;3316;44.118;27.258;2022-11-12T08:39:46;102838.84;;;20.06;80.82
6565;BME280;3316;44.118;27.258;2022-11-12T08:42:12;102882.53;;;19.32;92.94
6565;BME280;3316;44.118;27.258;2022-11-12T08:44:37;102875.06;;;18.74;98.13
6565;BME280;3316;44.118;27.258;2022-11-12T08:47:03;102870.03;;;18.28;100.00
6565;BME280;3316;44.118;27.258;2022-11-12T08:49:28;102869.16;;;18.28;100.00
6565;BME280;3316;44.118;27.258;2022-11-12T08:51:54;102856.59;;;18.48;100.00
6565;BME280;3316;44.118;27.258;2022-11-12T08:54:20;102878.94;;;20.66;89.94
6565;BME280;3316;44.118;27.258;2022-11-12T08:56:45;102862.50;;;22.21;78.57
6565;BME280;3316;44.118;27.258;2022-11-12T08:59:11;102861.03;;;23.14;67.04
6565;BME280;3316;44.118;27.258;2022-11-12T09:01:36;102863.13;;;22.69;68.92
6565;BME280;3316;44.118;27.258;2022-11-12T09:04:03;102868.53;;;23.35;63.32
6565;BME280;3316;44.118;27.258;2022-11-12T09:06:28;102878.50;;;24.77;58.25
6565;BME280;3316;44.118;27.258;2022-11-12T09:08:54;102863.34;;;24.99;55.17
6565;BME280;3316;44.118;27.258;2022-11-12T09:11:19;102852.22;;;23.42;58.84
6565;BME280;3316;44.118;27.258;2022-11-12T09:13:45;102845.06;;;21.61;69.84
6565;BME280;3316;44.118;27.258;2022-11-12T09:16:10;102843.16;;;20.73;80.00
6565;BME280;3316;44.118;27.258;2022-11-12T09:18:36;102835.91;;;20.78;81.90
6565;BME280;3316;44.118;27.258;2022-11-12T09:21:07;102819.91;;;20.24;86.55
6565;BME280;3316;44.118;27.258;2022-11-12T09:23:34;102842.94;;;20.31;88.96
6565;BME280;3316;44.118;27.258;2022-11-12T09:26:00;102846.63;;;20.24;89.79
6565;BME280;3316;44.118;27.258;2022-11-12T09:28:26;102847.91;;;20.56;88.30
6565;BME280;3316;44.118;27.258;2022-11-12T09:30:53;102837.41;;;19.83;91.19
6565;BME280;3316;44.118;27.258;2022-11-12T09:33:30;102850.59;;;19.20;98.44
6565;BME280;3316;44.118;27.258;2022-11-12T09:35:59;102838.81;;;19.41;96.79
6565;BME280;3316;44.118;27.258;2022-11-12T09:38:25;102845.97;;;19.40;95.27
6565;BME280;3316;44.118;27.258;2022-11-12T09:43:53;102856.19;;;20.39;89.73
6565;BME280;3316;44.118;27.258;2022-11-12T09:49:18;102853.84;;;23.48;67.30
6565;BME280;3316;44.118;27.258;2022-11-12T09:51:58;102850.56;;;24.53;62.30
6565;BME280;3316;44.118;27.258;2022-11-12T09:54:27;102853.16;;;26.03;54.04
6565;BME280;3316;44.118;27.258;2022-11-12T09:56:54;102857.56;;;27.12;50.14
6565;BME280;3316;44.118;27.258;2022-11-12T09:59:21;102861.38;;;27.28;47.53
6565;BME280;3316;44.118;27.258;2022-11-12T10:07:41;102855.91;;;27.50;46.86
6565;BME280;3316;44.118;27.258;2022-11-12T10:10:15;102853.50;;;25.47;51.57
6565;BME280;3316;44.118;27.258;2022-11-12T10:18:07;102841.44;;;24.57;57.07
6565;BME280;3316;44.118;27.258;2022-11-12T10:23:28;102839.81;;;26.65;50.60
6565;BME280;3316;44.118;27.258;2022-11-12T10:25:58;102849.66;;;27.68;47.48
6565;BME280;3316;44.118;27.258;2022-11-12T10:28:33;102864.38;;;27.99;45.27
6565;BME280;3316;44.118;27.258;2022-11-12T10:31:18;102847.81;;;27.87;44.13
6565;BME280;3316;44.118;27.258;2022-11-12T10:33:44;102841.66;;;26.64;45.40
6565;BME280;3316;44.118;27.258;2022-11-12T10:36:25;102810.25;;;24.50;51.43
6565;BME280;3316;44.118;27.258;2022-11-12T10:38:53;102847.28;;;24.96;50.95
6565;BME280;3316;44.118;27.258;2022-11-12T10:41:30;102848.06;;;24.47;53.14
6565;BME280;3316;44.118;27.258;2022-11-12T10:44:01;102836.88;;;23.46;55.12
6565;BME280;3316;44.118;27.258;2022-11-12T10:46:31;102841.59;;;22.72;59.81
6565;BME280;3316;44.118;27.258;2022-11-12T10:49:02;102837.50;;;21.37;67.69
6565;BME280;3316;44.118;27.258;2022-11-12T10:51:33;102830.94;;;19.97;82.17
6565;BME280;3316;44.118;27.258;2022-11-12T10:54:35;102831.72;;;18.50;97.02
6565;BME280;3316;44.118;27.258;2022-11-12T10:57:27;102835.75;;;17.72;100.00
6565;BME280;3316;44.118;27.258;2022-11-12T11:02:31;102830.63;;;17.00;100.00
6565;BME280;3316;44.118;27.258;2022-11-12T11:04:57;102789.91;;;16.62;100.00
6565;BME280;3316;44.118;27.258;2022-11-12T11:07:24;102820.00;;;16.89;100.00
6565;BME280;3316;44.118;27.258;2022-11-12T11:09:55;102834.22;;;16.87;100.00
6565;BME280;3316;44.118;27.258;2022-11-12T11:12:30;102824.47;;;16.83;100.00
6565;BME280;3316;44.118;27.258;2022-11-12T11:17:36;102801.41;;;16.20;100.00
6565;BME280;3316;44.118;27.258;2022-11-12T11:20:09;102820.88;;;16.25;100.00
6565;BME280;3316;44.118;27.258;2022-11-12T11:22:41;102822.63;;;16.17;100.00
6565;BME280;3316;44.118;27.258;2022-11-12T11:25:27;102827.94;;;16.10;100.00
6565;BME280;3316;44.118;27.258;2022-11-12T11:30:45;102823.50;;;16.05;100.00
6565;BME280;3316;44.118;27.258;2022-11-12T11:38:50;102803.16;;;16.18;100.00
6565;BME280;3316;44.118;27.258;2022-11-12T11:41:24;102814.72;;;16.58;100.00
6565;BME280;3316;44.118;27.258;2022-11-12T11:50:57;102815.50;;;17.28;100.00
6565;BME280;3316;44.118;27.258;2022-11-12T11:55:37;102820.84;;;17.13;100.00
6565;BME280;3316;44.118;27.258;2022-11-12T12:06:29;102790.78;;;16.40;100.00
6565;BME280;3316;44.118;27.258;2022-11-12T12:12:06;102808.50;;;16.48;100.00
6565;BME280;3316;44.118;27.258;2022-11-12T12:17:47;102814.72;;;16.55;100.00
6565;BME280;3316;44.118;27.258;2022-11-12T12:20:35;102816.47;;;16.36;100.00
6565;BME280;3316;44.118;27.258;2022-11-12T12:23:34;102813.81;;;16.45;100.00
6565;BME280;3316;44.118;27.258;2022-11-12T12:25:59;102807.59;;;16.30;100.00
6565;BME280;3316;44.118;27.258;2022-11-12T12:32:02;102806.69;;;15.99;100.00
6565;BME280;3316;44.118;27.258;2022-11-12T12:34:41;102812.00;;;15.93;100.00
6565;BME280;3316;44.118;27.258;2022-11-12T12:37:36;102810.19;;;15.81;100.00
6565;BME280;3316;44.118;27.258;2022-11-12T12:40:19;102807.50;;;15.71;100.00
6565;BME280;3316;44.118;27.258;2022-11-12T12:43:03;102816.41;;;15.83;100.00
6565;BME280;3316;44.118;27.258;2022-11-12T12:45:41;102797.81;;;15.83;100.00
6565;BME280;3316;44.118;27.258;2022-11-12T12:48:24;102794.22;;;15.80;100.00
6565;BME280;3316;44.118;27.258;2022-11-12T12:50:52;102799.56;;;15.77;100.00
6565;BME280;3316;44.118;27.258;2022-11-12T12:55:48;102791.59;;;15.78;100.00
6565;BME280;3316;44.118;27.258;2022-11-12T13:00:59;102807.56;;;15.87;100.00
6565;BME280;3316;44.118;27.258;2022-11-12T13:17:09;102799.38;;;15.35;100.00
6565;BME280;3316;44.118;27.258;2022-11-12T13:32:56;102795.94;;;15.55;100.00
6565;BME280;3316;44.118;27.258;2022-11-12T13:35:36;102795.94;;;15.54;100.00
6565;BME280;3316;44.118;27.258;2022-11-12T13:40:43;102809.25;;;15.67;100.00
6565;BME280;3316;44.118;27.258;2022-11-12T13:43:42;102806.56;;;15.57;100.00
6565;BME280;3316;44.118;27.258;2022-11-12T13:53:57;102804.72;;;15.41;100.00
6565;BME280;3316;44.118;27.258;2022-11-12T13:56:31;102810.88;;;15.40;100.00
6565;BME280;3316;44.118;27.258;2022-11-12T13:59:19;102814.50;;;15.46;100.00
6565;BME280;3316;44.118;27.258;2022-11-12T14:01:46;102812.69;;;15.45;100.00
6565;BME280;3316;44.118;27.258;2022-11-12T14:04:14;102797.69;;;15.44;100.00
6565;BME280;3316;44.118;27.258;2022-11-12T14:06:51;102810.94;;;15.49;100.00
6565;BME280;3316;44.118;27.258;2022-11-12T14:22:39;102806.34;;;15.14;100.00
6565;BME280;3316;44.118;27.258;2022-11-12T14:25:17;102797.50;;;15.14;100.00
6565;BME280;3316;44.118;27.258;2022-11-12T14:27:45;102774.41;;;14.93;100.00
6565;BME280;3316;44.118;27.258;2022-11-12T14:32:48;102801.81;;;14.95;100.00
6565;BME280;3316;44.118;27.258;2022-11-12T14:38:10;102804.28;;;14.68;100.00
6565;BME280;3316;44.118;27.258;2022-11-12T14:40:43;102801.59;;;14.64;100.00
6565;BME280;3316;44.118;27.258;2022-11-12T14:43:20;102801.50;;;14.53;100.00
6565;BME280;3316;44.118;27.258;2022-11-12T14:45:47;102796.88;;;14.28;100.00
6565;BME280;3316;44.118;27.258;2022-11-12T14:48:14;102792.31;;;14.13;100.00
6565;BME280;3316;44.118;27.258;2022-11-12T14:50:40;102805.47;;;14.07;100.00
6565;BME280;3316;44.118;27.258;2022-11-12T14:53:44;102803.69;;;14.06;100.00
6565;BME280;3316;44.118;27.258;2022-11-12T14:56:05;102801.09;;;14.08;100.00
6565;BME280;3316;44.118;27.258;2022-11-12T14:58:32;102808.91;;;13.99;100.00
6565;BME280;3316;44.118;27.258;2022-11-12T15:03:47;102798.22;;;13.88;100.00
6565;BME280;3316;44.118;27.258;2022-11-12T15:06:18;102798.94;;;13.74;100.00
6565;BME280;3316;44.118;27.258;2022-11-12T15:08:43;102795.28;;;13.61;100.00
6565;BME280;3316;44.118;27.258;2022-11-12T15:11:27;102795.31;;;13.64;100.00
6565;BME280;3316;44.118;27.258;2022-11-12T15:13:55;102799.44;;;13.43;100.00